createdAt,value
2022-10-17T00:01:45.256Z,0.82
2022-10-17T00:04:13.022Z,0.50
2022-10-17T00:06:40.616Z,0.52
2022-10-17T00:09:08.756Z,1.10
2022-10-17T00:11:36.584Z,0.30
2022-10-17T00:14:09.409Z,0.95
2022-10-17T00:16:46.716Z,0.50
2022-10-17T00:19:23.230Z,0.98
2022-10-17T00:21:50.989Z,0.75
2022-10-17T00:24:18.979Z,0.85
2022-10-17T00:29:16.647Z,0.40
2022-10-17T00:31:44.734Z,1.38
2022-10-17T00:36:40.369Z,0.63
2022-10-17T00:39:08.409Z,0.90
2022-10-17T00:44:32.801Z,0.65
2022-10-17T00:47:09.997Z,0.90
2022-10-17T00:49:50.294Z,0.75
2022-10-17T00:52:24.306Z,0.65
2022-10-17T00:55:08.762Z,0.75
2022-10-17T00:57:36.531Z,0.63
2022-10-17T01:00:08.727Z,0.60
2022-10-17T01:02:35.987Z,0.93
2022-10-17T01:05:04.035Z,0.50
2022-10-17T01:10:05.954Z,1.08
2022-10-17T01:12:47.545Z,1.00
2022-10-17T01:15:20.368Z,0.82
2022-10-17T01:18:09.492Z,0.50
2022-10-17T01:20:54.602Z,0.82
2022-10-17T01:23:55.482Z,1.00
2022-10-17T01:26:49.491Z,1.35
2022-10-17T01:29:34.333Z,1.27
2022-10-17T01:32:04.765Z,0.93
2022-10-17T01:34:36.157Z,0.63
2022-10-17T01:37:18.155Z,1.15
2022-10-17T01:39:48.180Z,1.23
2022-10-17T01:42:47.590Z,0.77
2022-10-17T01:45:27.281Z,0.93
2022-10-17T01:47:57.131Z,1.52
2022-10-17T01:50:31.476Z,0.60
2022-10-17T01:53:09.887Z,0.88
2022-10-17T01:55:41.055Z,1.40
2022-10-17T01:58:13.680Z,1.05
2022-10-17T02:00:44.025Z,1.13
2022-10-17T02:03:17.054Z,0.63
2022-10-17T02:05:46.192Z,1.35
2022-10-17T02:08:13.903Z,0.93
2022-10-17T02:10:49.589Z,0.40
2022-10-17T02:13:41.061Z,1.30
2022-10-17T02:16:42.618Z,0.63
2022-10-17T02:19:29.340Z,0.70
2022-10-17T02:22:18.413Z,1.58
2022-10-17T02:25:17.031Z,1.17
2022-10-17T02:28:05.368Z,0.95
2022-10-17T02:30:52.533Z,0.65
2022-10-17T02:33:28.567Z,0.40
2022-10-17T02:36:01.797Z,0.80
2022-10-17T02:38:30.997Z,1.08
2022-10-17T02:40:58.514Z,0.77
2022-10-17T02:43:26.353Z,0.15
2022-10-17T02:45:54.286Z,0.73
2022-10-17T02:48:35.032Z,0.32
2022-10-17T02:51:05.858Z,0.82
2022-10-17T02:54:14.587Z,0.80
2022-10-17T02:57:06.751Z,0.60
2022-10-17T02:59:37.255Z,1.50
2022-10-17T03:02:10.469Z,0.85
2022-10-17T03:04:37.861Z,0.43
2022-10-17T03:07:04.943Z,1.77
2022-10-17T03:09:32.101Z,0.40
2022-10-17T03:11:59.753Z,0.50
2022-10-17T03:14:27.071Z,0.85
2022-10-17T03:16:54.322Z,0.35
2022-10-17T03:19:21.540Z,1.15
2022-10-17T03:21:48.690Z,0.57
2022-10-17T03:24:16.108Z,1.10
2022-10-17T03:26:43.301Z,0.65
2022-10-17T03:29:10.793Z,1.08
2022-10-17T03:31:38.094Z,0.52
2022-10-17T03:34:05.242Z,0.88
2022-10-17T03:36:32.632Z,1.13
2022-10-17T03:39:00.160Z,0.82
2022-10-17T03:41:27.657Z,0.75
2022-10-17T03:43:54.928Z,0.65
2022-10-17T03:46:22.182Z,0.73
2022-10-17T03:48:49.383Z,0.93
2022-10-17T03:51:16.916Z,0.60
2022-10-17T03:53:51.668Z,0.68
2022-10-17T03:56:22.326Z,0.77
2022-10-17T03:58:50.037Z,0.65
2022-10-17T04:01:19.262Z,0.63
2022-10-17T04:03:53.389Z,0.70
2022-10-17T04:06:21.548Z,0.93
2022-10-17T04:08:49.205Z,0.93
2022-10-17T04:11:21.461Z,0.88
2022-10-17T04:13:48.808Z,1.08
2022-10-17T04:16:17.518Z,0.47
2022-10-17T04:18:44.968Z,0.60
2022-10-17T04:21:13.627Z,0.95
2022-10-17T04:23:40.551Z,0.50
2022-10-17T04:26:07.928Z,0.50
2022-10-17T04:28:36.473Z,0.60
2022-10-17T04:31:06.885Z,1.10
2022-10-17T04:33:35.111Z,0.82
2022-10-17T04:36:04.648Z,1.25
2022-10-17T04:38:32.037Z,0.60
2022-10-17T04:41:03.287Z,0.52
2022-10-17T04:43:35.676Z,0.77
2022-10-17T04:46:04.650Z,1.08
2022-10-17T04:48:32.058Z,1.52
2022-10-17T04:51:05.253Z,1.48
2022-10-17T04:53:34.339Z,1.63
2022-10-17T04:56:01.543Z,0.82
2022-10-17T04:58:31.540Z,1.23
2022-10-17T05:00:58.758Z,1.33
2022-10-17T05:03:25.720Z,0.55
2022-10-17T05:05:52.664Z,0.93
2022-10-17T05:08:19.652Z,1.00
2022-10-17T05:10:46.867Z,0.90
2022-10-17T05:13:14.827Z,0.60
2022-10-17T05:15:42.188Z,1.17
2022-10-17T05:18:09.399Z,0.80
2022-10-17T05:20:36.986Z,0.68
2022-10-17T05:23:03.938Z,1.25
2022-10-17T05:25:31.082Z,1.25
2022-10-17T05:27:58.059Z,0.60
2022-10-17T05:30:25.060Z,0.70
2022-10-17T05:32:55.942Z,0.52
2022-10-17T05:35:23.217Z,0.77
2022-10-17T05:37:50.280Z,1.05
2022-10-17T05:40:17.640Z,0.73
2022-10-17T05:42:49.604Z,0.68
2022-10-17T05:45:17.117Z,1.23
2022-10-17T05:47:44.540Z,0.60
2022-10-17T05:50:11.804Z,1.20
2022-10-17T05:52:38.898Z,1.13
2022-10-17T05:55:07.085Z,1.30
2022-10-17T05:57:34.128Z,0.90
2022-10-17T06:00:01.216Z,1.42
2022-10-17T06:02:29.091Z,1.57
2022-10-17T06:07:23.120Z,1.30
2022-10-17T06:09:50.667Z,0.80
2022-10-17T06:12:17.666Z,1.67
2022-10-17T06:14:47.760Z,0.73
2022-10-17T06:17:16.232Z,0.80
2022-10-17T06:19:45.159Z,0.77
2022-10-17T06:22:12.317Z,0.65
2022-10-17T06:24:39.298Z,0.93
2022-10-17T06:27:10.888Z,1.00
2022-10-17T06:29:39.889Z,1.30
2022-10-17T06:32:09.889Z,1.55
2022-10-17T06:34:39.722Z,1.08
2022-10-17T06:37:06.886Z,0.88
2022-10-17T06:39:35.350Z,1.80
2022-10-17T06:42:04.447Z,1.60
2022-10-17T06:44:32.171Z,1.08
2022-10-17T06:47:00.341Z,1.02
2022-10-17T06:49:28.139Z,0.90
2022-10-17T06:51:55.397Z,1.40
2022-10-17T06:54:22.299Z,1.67
2022-10-17T06:56:49.299Z,1.63
2022-10-17T06:59:16.538Z,1.35
2022-10-17T07:01:46.242Z,1.65
2022-10-17T07:04:14.564Z,1.73
2022-10-17T07:06:42.345Z,1.52
2022-10-17T07:09:09.817Z,2.33
2022-10-17T07:11:37.783Z,1.23
2022-10-17T07:16:38.879Z,1.13
2022-10-17T07:19:05.961Z,1.50
2022-10-17T07:21:38.956Z,1.40
2022-10-17T07:24:07.707Z,1.52
2022-10-17T07:26:34.872Z,1.92
2022-10-17T07:29:02.611Z,1.48
2022-10-17T07:31:29.580Z,1.30
2022-10-17T07:33:57.022Z,2.33
2022-10-17T07:36:24.200Z,1.15
2022-10-17T07:38:51.115Z,1.50
2022-10-17T07:41:21.722Z,1.48
2022-10-17T07:43:49.656Z,1.10
2022-10-17T07:46:16.716Z,0.98
2022-10-17T07:48:43.679Z,1.47
2022-10-17T07:51:11.019Z,1.33
2022-10-17T07:53:41.768Z,0.82
2022-10-17T07:56:11.690Z,1.65
2022-10-17T07:58:39.418Z,1.27
2022-10-17T08:01:14.869Z,1.33
2022-10-17T08:03:44.831Z,1.10
2022-10-17T08:06:13.120Z,0.90
2022-10-17T08:08:40.558Z,0.70
2022-10-17T08:11:10.289Z,0.77
2022-10-17T08:13:38.272Z,1.05
2022-10-17T08:16:11.001Z,1.95
2022-10-17T08:18:42.921Z,1.20
2022-10-17T08:21:11.962Z,0.70
2022-10-17T08:23:39.008Z,1.00
2022-10-17T08:26:10.833Z,0.75
2022-10-17T08:28:40.338Z,0.85
2022-10-17T08:31:10.474Z,1.30
2022-10-17T08:33:38.515Z,0.82
2022-10-17T08:36:06.566Z,1.02
2022-10-17T08:38:35.949Z,1.08
2022-10-17T08:41:07.518Z,1.10
2022-10-17T08:44:03.544Z,0.82
2022-10-17T08:46:34.288Z,0.70
2022-10-17T08:49:06.477Z,1.45
2022-10-17T08:51:40.746Z,1.10
2022-10-17T08:54:24.644Z,0.60
2022-10-17T08:56:54.780Z,0.70
2022-10-17T08:59:29.197Z,1.15
2022-10-17T09:02:18.684Z,1.05
2022-10-17T09:04:56.519Z,0.47
2022-10-17T09:07:57.515Z,1.02
2022-10-17T09:10:41.356Z,0.60
2022-10-17T09:14:12.049Z,0.98
2022-10-17T09:16:47.201Z,0.60
2022-10-17T09:19:23.705Z,0.60
2022-10-17T09:22:00.391Z,0.60
2022-10-17T09:24:58.256Z,0.70
2022-10-17T09:27:36.574Z,0.50
2022-10-17T09:30:44.167Z,0.80
2022-10-17T09:33:34.781Z,0.60
2022-10-17T09:36:21.127Z,0.60
2022-10-17T09:38:53.290Z,0.57
2022-10-17T09:41:44.717Z,0.55
2022-10-17T09:44:37.124Z,0.57
2022-10-17T09:47:39.525Z,0.68
2022-10-17T09:50:21.055Z,0.80
2022-10-17T09:52:50.962Z,0.57
2022-10-17T09:55:22.854Z,0.55
2022-10-17T09:58:02.806Z,0.50
2022-10-17T10:00:34.667Z,0.70
2022-10-17T10:03:25.082Z,0.40
2022-10-17T10:06:15.515Z,0.50
2022-10-17T10:08:55.112Z,0.43
2022-10-17T10:11:26.602Z,0.75
2022-10-17T10:14:14.590Z,0.65
2022-10-17T10:16:46.222Z,1.35
2022-10-17T10:19:50.738Z,1.33
2022-10-17T10:22:20.229Z,0.90
2022-10-17T10:25:46.186Z,0.85
2022-10-17T10:28:17.708Z,0.32
2022-10-17T10:30:54.194Z,0.60
2022-10-17T10:33:33.358Z,0.53
2022-10-17T10:36:10.130Z,0.50
2022-10-17T10:38:45.222Z,0.50
2022-10-17T10:41:13.113Z,0.50
2022-10-17T10:46:33.395Z,0.60
2022-10-17T10:49:02.516Z,0.40
2022-10-17T10:51:50.169Z,0.38
2022-10-17T10:54:32.678Z,0.85
2022-10-17T10:57:04.179Z,0.82
2022-10-17T10:59:40.256Z,0.40
2022-10-17T11:02:26.348Z,0.45
2022-10-17T11:05:12.556Z,0.63
2022-10-17T11:07:45.974Z,0.40
2022-10-17T11:10:37.894Z,0.30
2022-10-17T11:13:17.689Z,0.70
2022-10-17T11:16:10.467Z,0.73
2022-10-17T11:18:47.452Z,0.40
2022-10-17T11:21:24.500Z,0.60
2022-10-17T11:24:33.549Z,0.70
2022-10-17T11:27:03.364Z,0.70
2022-10-17T11:29:33.811Z,0.55
2022-10-17T11:32:59.562Z,0.60
2022-10-17T11:35:43.405Z,0.43
2022-10-17T11:38:27.959Z,0.40
2022-10-17T11:40:59.791Z,0.70
2022-10-17T11:43:35.933Z,0.60
2022-10-17T11:46:12.402Z,0.90
2022-10-17T11:49:07.037Z,0.60
2022-10-17T11:52:02.110Z,0.70
2022-10-17T11:54:37.667Z,0.50
2022-10-17T11:57:15.169Z,0.70
2022-10-17T12:02:45.039Z,0.53
2022-10-17T12:05:38.054Z,0.70
2022-10-17T12:08:10.555Z,0.50
2022-10-17T12:11:01.142Z,0.93
2022-10-17T12:13:32.488Z,0.40
2022-10-17T12:16:19.862Z,0.70
2022-10-17T12:19:11.628Z,0.57
2022-10-17T12:22:26.249Z,0.70
2022-10-17T12:25:00.837Z,0.73
2022-10-17T12:27:38.905Z,0.47
2022-10-17T12:30:12.307Z,0.70
2022-10-17T12:33:08.888Z,0.40
2022-10-17T12:35:38.543Z,0.45
2022-10-17T12:38:17.899Z,0.60
2022-10-17T12:40:48.684Z,0.65
2022-10-17T12:43:16.278Z,0.80
2022-10-17T12:45:56.553Z,0.68
2022-10-17T12:48:38.730Z,0.70
2022-10-17T12:51:35.407Z,0.90
2022-10-17T12:56:43.838Z,0.95
2022-10-17T12:59:22.818Z,0.80
2022-10-17T13:01:57.809Z,0.63
2022-10-17T13:04:26.222Z,0.93
2022-10-17T13:06:57.184Z,0.68
2022-10-17T13:09:33.323Z,0.80
2022-10-17T13:12:03.523Z,0.98
2022-10-17T13:14:33.352Z,0.90
2022-10-17T13:17:05.612Z,0.52
2022-10-17T13:19:42.816Z,0.90
2022-10-17T13:22:20.872Z,0.85
2022-10-17T13:24:49.626Z,1.10
2022-10-17T13:27:34.279Z,1.30
2022-10-17T13:30:18.027Z,1.10
2022-10-17T13:32:45.692Z,1.48
2022-10-17T13:35:17.444Z,0.75
2022-10-17T13:37:51.558Z,1.27
2022-10-17T13:40:49.114Z,0.63
2022-10-17T13:43:24.534Z,1.15
2022-10-17T13:46:25.435Z,0.98
2022-10-17T13:48:53.144Z,0.77
2022-10-17T13:51:20.666Z,1.15
2022-10-17T13:53:47.820Z,0.70
2022-10-17T13:56:28.365Z,0.57
2022-10-17T13:59:10.224Z,0.70
2022-10-17T14:01:38.516Z,1.00
2022-10-17T14:04:14.108Z,1.20
2022-10-17T14:06:51.171Z,0.82
2022-10-17T14:09:29.321Z,0.85
2022-10-17T14:11:58.317Z,1.55
2022-10-17T14:14:26.689Z,0.70
2022-10-17T14:16:54.863Z,0.60
2022-10-17T14:19:38.725Z,0.98
2022-10-17T14:22:38.416Z,0.80
2022-10-17T14:25:08.862Z,1.40
2022-10-17T14:27:55.853Z,0.70
2022-10-17T14:30:51.791Z,1.13
2022-10-17T14:33:27.807Z,1.02
2022-10-17T14:36:00.103Z,0.90
2022-10-17T14:38:29.877Z,0.65
2022-10-17T14:44:14.985Z,0.80
2022-10-17T14:46:50.531Z,0.65
2022-10-17T14:49:25.592Z,0.43
2022-10-17T14:52:14.933Z,1.00
2022-10-17T14:54:48.810Z,0.52
2022-10-17T14:57:30.306Z,0.50
2022-10-17T14:59:58.866Z,1.30
2022-10-17T15:02:27.836Z,0.93
2022-10-17T15:04:55.436Z,0.88
2022-10-17T15:07:24.047Z,1.15
2022-10-17T15:09:53.164Z,0.70
2022-10-17T15:12:23.861Z,1.00
2022-10-17T15:14:52.158Z,0.98
2022-10-17T15:17:21.167Z,0.80
2022-10-17T15:19:49.226Z,1.00
2022-10-17T15:22:16.454Z,1.52
2022-10-17T15:24:43.528Z,0.68
2022-10-17T15:27:16.884Z,1.13
2022-10-17T15:29:44.501Z,1.05
2022-10-17T15:32:11.918Z,1.02
2022-10-17T15:34:38.978Z,1.05
2022-10-17T15:37:14.670Z,0.90
2022-10-17T15:39:41.609Z,1.30
2022-10-17T15:42:12.964Z,1.30
2022-10-17T15:44:44.290Z,1.20
2022-10-17T15:47:25.851Z,1.30
2022-10-17T15:52:37.421Z,1.17
2022-10-17T15:55:06.202Z,2.40
2022-10-17T15:57:42.112Z,2.10
2022-10-17T16:00:30.280Z,1.45
2022-10-17T16:02:57.928Z,1.65
2022-10-17T16:05:26.658Z,0.82
2022-10-17T16:07:54.899Z,2.70
2022-10-17T16:10:29.024Z,3.70
2022-10-17T16:12:56.736Z,3.30
2022-10-17T16:15:44.183Z,2.40
2022-10-17T16:18:52.211Z,2.67
2022-10-17T16:21:23.041Z,1.77
2022-10-17T16:23:50.598Z,2.92
2022-10-17T16:26:18.102Z,2.55
2022-10-17T16:28:46.256Z,2.17
2022-10-17T16:31:20.221Z,2.70
2022-10-17T16:33:48.177Z,1.88
2022-10-17T16:38:42.195Z,2.80
2022-10-17T16:41:29.237Z,3.67
2022-10-17T16:44:00.551Z,3.03
2022-10-17T16:46:30.836Z,2.25
2022-10-17T16:48:59.021Z,2.03
2022-10-17T16:51:30.001Z,2.45
2022-10-17T16:54:00.344Z,1.67
2022-10-17T16:56:32.970Z,1.88
2022-10-17T16:59:01.212Z,1.88
2022-10-17T17:01:29.662Z,2.65
2022-10-17T17:03:57.242Z,2.42
2022-10-17T17:06:30.923Z,2.80
2022-10-17T17:08:58.374Z,2.55
2022-10-17T17:11:27.010Z,2.42
2022-10-17T17:13:59.042Z,3.00
2022-10-17T17:16:27.686Z,2.30
2022-10-17T17:19:00.202Z,3.28
2022-10-17T17:21:28.152Z,8.57
2022-10-17T17:23:59.080Z,6.38
2022-10-17T17:26:28.381Z,3.42
2022-10-17T17:28:57.517Z,4.20
2022-10-17T17:31:27.758Z,3.70
2022-10-17T17:36:32.928Z,4.03
2022-10-17T17:39:02.169Z,3.50
2022-10-17T17:41:29.994Z,2.35
2022-10-17T17:43:57.670Z,2.67
2022-10-17T17:46:25.825Z,3.33
2022-10-17T17:48:54.510Z,2.03
2022-10-17T17:51:28.318Z,2.78
2022-10-17T17:53:56.571Z,2.38
2022-10-17T17:56:30.065Z,2.80
2022-10-17T17:59:03.889Z,2.38
2022-10-17T18:01:35.375Z,1.70
2022-10-17T18:04:03.545Z,2.00
2022-10-17T18:06:31.061Z,1.80
2022-10-17T18:08:59.608Z,1.95
2022-10-17T18:11:27.943Z,2.25
2022-10-17T18:14:00.320Z,1.90
2022-10-17T18:16:28.952Z,2.25
2022-10-17T18:18:56.252Z,2.28
2022-10-17T18:21:23.964Z,2.05
2022-10-17T18:23:52.062Z,1.73
2022-10-17T18:26:22.503Z,1.65
2022-10-17T18:28:58.559Z,1.73
2022-10-17T18:31:29.244Z,1.90
2022-10-17T18:34:03.760Z,1.75
2022-10-17T18:36:32.450Z,1.55
2022-10-17T18:39:01.050Z,1.48
2022-10-17T18:41:28.889Z,1.25
2022-10-17T18:44:08.860Z,2.38
2022-10-17T18:49:19.448Z,1.75
2022-10-17T18:51:50.407Z,1.70
2022-10-17T18:54:21.756Z,1.92
2022-10-17T18:56:54.294Z,1.27
2022-10-17T18:59:36.663Z,1.58
2022-10-17T19:02:04.636Z,2.00
2022-10-17T19:06:58.941Z,1.83
2022-10-17T19:09:26.508Z,2.47
2022-10-17T19:11:54.113Z,1.83
2022-10-17T19:14:21.757Z,2.00
2022-10-17T19:16:51.397Z,1.70
2022-10-17T19:19:31.428Z,1.27
2022-10-17T19:22:00.708Z,1.77
2022-10-17T19:24:29.208Z,1.75
2022-10-17T19:26:58.558Z,1.27
2022-10-17T19:29:28.624Z,2.20
2022-10-17T19:34:28.180Z,1.92
2022-10-17T19:36:56.116Z,2.25
2022-10-17T19:41:51.536Z,1.42
2022-10-17T19:44:19.227Z,1.88
2022-10-17T19:46:49.525Z,1.88
2022-10-17T19:49:17.607Z,1.20
2022-10-17T19:54:13.149Z,1.92
2022-10-17T19:56:43.418Z,2.53
2022-10-17T19:59:14.168Z,1.48
2022-10-17T20:01:41.550Z,1.50
2022-10-17T20:04:11.247Z,1.55
2022-10-17T20:06:39.669Z,1.58
2022-10-17T20:09:12.486Z,1.65
2022-10-17T20:11:46.603Z,1.10
2022-10-17T20:14:15.737Z,1.48
2022-10-17T20:16:45.125Z,1.75
2022-10-17T20:19:14.017Z,1.40
2022-10-17T20:21:41.784Z,1.55
2022-10-17T20:24:12.564Z,0.95
2022-10-17T20:26:40.273Z,2.70
2022-10-17T20:29:13.224Z,1.33
2022-10-17T20:31:42.456Z,1.75
2022-10-17T20:34:13.245Z,1.83
2022-10-17T20:36:41.692Z,1.73
2022-10-17T20:39:11.499Z,2.22
2022-10-17T20:41:39.278Z,1.73
2022-10-17T20:44:07.115Z,1.73
2022-10-17T20:46:37.165Z,1.63
2022-10-17T20:49:06.871Z,1.50
2022-10-17T20:51:34.796Z,2.10
2022-10-17T20:54:03.082Z,1.92
2022-10-17T20:56:32.600Z,1.45
2022-10-17T20:59:12.396Z,2.35
2022-10-17T21:01:42.755Z,1.75
2022-10-17T21:04:45.388Z,1.13
2022-10-17T21:07:00.269Z,1.77
2022-10-17T21:09:27.699Z,1.08
2022-10-17T21:11:56.183Z,1.92
2022-10-17T21:14:24.893Z,1.92
2022-10-17T21:16:52.719Z,2.97
2022-10-17T21:19:20.226Z,1.48
2022-10-17T21:21:47.236Z,0.95
2022-10-17T21:24:18.426Z,1.70
2022-10-17T21:26:47.424Z,1.55
2022-10-17T21:29:14.634Z,1.55
2022-10-17T21:31:44.085Z,1.48
2022-10-17T21:34:18.470Z,1.85
2022-10-17T21:36:46.650Z,0.98
2022-10-17T21:39:15.646Z,1.35
2022-10-17T21:41:44.327Z,0.90
2022-10-17T21:44:18.332Z,1.83
2022-10-17T21:46:55.714Z,1.83
2022-10-17T21:49:25.932Z,1.20
2022-10-17T21:51:53.573Z,1.42
2022-10-17T21:54:23.404Z,1.17
2022-10-17T21:56:51.382Z,1.05
2022-10-17T21:59:18.765Z,1.20
2022-10-17T22:01:46.684Z,0.98
2022-10-17T22:04:16.667Z,1.25
2022-10-17T22:06:46.218Z,1.52
2022-10-17T22:09:19.408Z,2.05
2022-10-17T22:11:48.360Z,1.58
2022-10-17T22:14:18.457Z,1.00
2022-10-17T22:16:46.876Z,1.42
2022-10-17T22:19:25.339Z,1.15
2022-10-17T22:21:53.164Z,0.77
2022-10-17T22:24:27.416Z,1.17
2022-10-17T22:26:54.517Z,0.75
2022-10-17T22:29:21.876Z,1.00
2022-10-17T22:31:49.054Z,1.02
2022-10-17T22:34:17.535Z,0.57
2022-10-17T22:36:44.934Z,0.55
2022-10-17T22:39:12.519Z,1.35
2022-10-17T22:41:39.915Z,0.95
2022-10-17T22:44:07.634Z,1.00
2022-10-17T22:46:38.137Z,0.85
2022-10-17T22:49:08.468Z,1.17
2022-10-17T22:51:35.804Z,0.95
2022-10-17T22:54:03.505Z,0.82
2022-10-17T22:56:30.729Z,0.88
2022-10-17T22:59:00.845Z,1.35
2022-10-17T23:01:28.392Z,0.68
2022-10-17T23:03:56.021Z,0.70
2022-10-17T23:06:24.057Z,1.08
2022-10-17T23:11:21.160Z,0.43
2022-10-17T23:13:51.010Z,1.00
2022-10-17T23:16:18.937Z,0.65
2022-10-17T23:18:46.720Z,1.27
2022-10-17T23:21:14.361Z,1.20
2022-10-17T23:23:42.309Z,0.82
2022-10-17T23:28:42.752Z,0.80
2022-10-17T23:31:21.650Z,0.95
2022-10-17T23:33:50.656Z,0.50
2022-10-17T23:36:23.529Z,1.45
2022-10-17T23:38:52.759Z,0.57
2022-10-17T23:41:22.983Z,1.48
2022-10-17T23:43:54.509Z,0.70
2022-10-17T23:46:21.516Z,0.90
2022-10-17T23:48:48.993Z,0.60
2022-10-17T23:51:16.561Z,0.70
2022-10-17T23:53:44.178Z,1.10
2022-10-17T23:56:11.801Z,0.40
2022-10-17T23:58:39.606Z,1.13
